Time;durP1;ratioP1;P1;durP2;ratioP2;P2;SDS_P1;SDS_P2;PMS_P1;PMS_P2;Temp;Humidity;BMP_temperature;BMP_pressure;BME280_temperature;BME280_humidity;BME280_pressure;Samples;Min_cycle;Max_cycle;Signal;HPM_P1;HPM_P2
2024/01/04 00:00:28;;;;;;;3.63;0.87;;;8.10;56.10;;;;;;5068058;27;46450;-67
2024/01/04 00:02:53;;;;;;;4.13;0.90;;;8.20;55.90;;;;;;5067091;27;46779;-68
2024/01/04 00:05:19;;;;;;;1.87;0.80;;;8.20;55.70;;;;;;5069325;27;46424;-67
2024/01/04 00:07:45;;;;;;;3.33;0.70;;;8.30;55.50;;;;;;5063040;27;46736;-67
2024/01/04 00:10:12;;;;;;;1.37;0.70;;;8.20;55.40;;;;;;5064585;27;46804;-67
2024/01/04 00:12:38;;;;;;;4.00;0.80;;;8.10;55.30;;;;;;5068512;27;46526;-66
2024/01/04 00:15:04;;;;;;;3.50;1.07;;;8.00;55.50;;;;;;5067809;27;46777;-67
2024/01/04 00:17:30;;;;;;;1.37;0.70;;;7.90;55.60;;;;;;5067058;27;46411;-67
2024/01/04 00:19:56;;;;;;;4.70;1.40;;;7.90;55.60;;;;;;5052150;27;46531;-66
2024/01/04 00:22:21;;;;;;;3.20;0.87;;;7.90;55.50;;;;;;5066087;27;46567;-66
2024/01/04 00:24:48;;;;;;;2.27;0.90;;;7.90;55.40;;;;;;5067682;27;46646;-66
2024/01/04 00:27:13;;;;;;;6.10;1.27;;;7.70;55.50;;;;;;5066074;27;46400;-66
2024/01/04 00:29:40;;;;;;;2.97;0.70;;;7.60;55.50;;;;;;5067769;27;46584;-66
2024/01/04 00:32:06;;;;;;;3.60;1.00;;;7.60;55.50;;;;;;5057802;27;46579;-66
2024/01/04 00:34:32;;;;;;;2.03;0.83;;;7.60;55.50;;;;;;5066825;27;46669;-68
2024/01/04 00:36:58;;;;;;;4.60;1.07;;;7.50;55.20;;;;;;5051177;27;46440;-68
2024/01/04 00:39:24;;;;;;;2.33;0.80;;;7.50;55.00;;;;;;5068342;27;46466;-66
2024/01/04 00:41:51;;;;;;;2.70;0.77;;;7.50;54.90;;;;;;5067427;27;46467;-66
2024/01/04 00:44:17;;;;;;;5.30;1.13;;;7.50;54.90;;;;;;5065069;27;47272;-66
2024/01/04 00:46:43;;;;;;;2.20;0.80;;;7.50;54.70;;;;;;5065717;27;46475;-67
2024/01/04 00:49:08;;;;;;;1.90;0.80;;;7.50;54.50;;;;;;5055989;27;46436;-67
2024/01/04 00:51:34;;;;;;;5.77;1.20;;;7.60;53.90;;;;;;5067496;27;46811;-67
2024/01/04 00:54:00;;;;;;;3.60;0.83;;;7.70;53.20;;;;;;5069063;27;47080;-67
2024/01/04 00:56:34;;;;;;;3.50;1.10;;;7.70;52.80;;;;;;5050960;28;46401;-67
2024/01/04 00:59:00;;;;;;;2.17;0.90;;;7.70;52.50;;;;;;5068299;27;46423;-68
2024/01/04 01:01:26;;;;;;;3.77;1.20;;;7.70;52.50;;;;;;5070160;27;46967;-67
2024/01/04 01:03:52;;;;;;;4.23;0.93;;;7.60;52.20;;;;;;5065676;27;46422;-67
2024/01/04 01:06:17;;;;;;;2.13;0.80;;;7.70;51.90;;;;;;5065498;27;46315;-67
2024/01/04 01:08:43;;;;;;;2.17;0.83;;;7.70;51.60;;;;;;5066937;27;46559;-68
2024/01/04 01:11:09;;;;;;;2.60;0.97;;;7.70;51.10;;;;;;5068664;27;46678;-67
2024/01/04 01:13:35;;;;;;;3.80;0.77;;;7.80;50.70;;;;;;5068419;27;46872;-67
2024/01/04 01:16:00;;;;;;;3.47;0.90;;;7.80;50.70;;;;;;5066185;27;46785;-65
2024/01/04 01:18:26;;;;;;;4.50;1.00;;;7.90;50.80;;;;;;5063907;27;46529;-68
2024/01/04 01:20:52;;;;;;;2.70;1.00;;;8.00;50.00;;;;;;5066123;27;46490;-67
2024/01/04 01:23:18;;;;;;;3.73;1.00;;;8.10;49.40;;;;;;5046946;27;46840;-68
2024/01/04 01:25:43;;;;;;;2.00;0.80;;;8.20;48.80;;;;;;5063910;27;46669;-66
2024/01/04 01:28:09;;;;;;;3.90;0.80;;;8.20;48.30;;;;;;5067649;27;45909;-67
2024/01/04 01:30:34;;;;;;;3.20;0.93;;;8.10;48.30;;;;;;5068389;27;46494;-67
2024/01/04 01:33:00;;;;;;;3.03;1.10;;;8.00;48.40;;;;;;5065472;27;46179;-68
2024/01/04 01:35:25;;;;;;;3.03;0.70;;;7.90;48.80;;;;;;5065608;27;46399;-67
2024/01/04 01:37:51;;;;;;;2.30;0.80;;;7.80;49.10;;;;;;5066856;27;46395;-66
2024/01/04 01:40:17;;;;;;;1.87;0.60;;;7.70;49.50;;;;;;5064552;27;46450;-67
2024/01/04 01:42:48;;;;;;;2.27;1.00;;;7.70;49.50;;;;;;5068368;27;47377;-67
2024/01/04 01:45:18;;;;;;;3.77;1.10;;;7.60;49.90;;;;;;5067066;27;46518;-66
2024/01/04 01:47:46;;;;;;;1.80;0.70;;;7.50;50.40;;;;;;5067232;27;46435;-67
2024/01/04 01:50:13;;;;;;;4.37;0.90;;;7.50;50.40;;;;;;5065416;27;46438;-68
2024/01/04 01:52:39;;;;;;;2.40;0.77;;;7.50;50.50;;;;;;5063871;27;46332;-67
2024/01/04 01:55:06;;;;;;;5.67;1.50;;;7.40;50.40;;;;;;5067674;27;46628;-67
2024/01/04 01:57:33;;;;;;;2.83;0.70;;;7.50;50.10;;;;;;5066153;27;46863;-68
2024/01/04 01:59:59;;;;;;;2.43;0.93;;;7.50;49.90;;;;;;5068210;27;46485;-68
2024/01/04 02:02:26;;;;;;;3.10;0.70;;;7.50;49.40;;;;;;5066235;27;47058;-67
2024/01/04 02:04:52;;;;;;;2.90;0.73;;;7.60;49.10;;;;;;5066645;27;46351;-68
2024/01/04 02:07:18;;;;;;;2.03;0.80;;;7.60;48.90;;;;;;5062686;27;46526;-67
2024/01/04 02:09:44;;;;;;;1.47;0.70;;;7.60;48.80;;;;;;5064608;27;46807;-67
2024/01/04 02:12:13;;;;;;;3.93;0.90;;;7.60;48.50;;;;;;5065116;27;47044;-68
2024/01/04 02:14:39;;;;;;;3.10;0.93;;;7.70;48.30;;;;;;5067467;27;46383;-67
2024/01/04 02:17:05;;;;;;;4.30;0.97;;;7.70;48.10;;;;;;5064683;27;46811;-68
2024/01/04 02:19:31;;;;;;;3.40;0.97;;;7.70;47.80;;;;;;5066503;27;46039;-68
2024/01/04 02:21:57;;;;;;;3.90;0.87;;;7.70;47.80;;;;;;5065216;27;46495;-67
2024/01/04 02:24:23;;;;;;;5.30;0.97;;;7.70;47.70;;;;;;5067026;27;46503;-67
2024/01/04 02:26:48;;;;;;;3.73;0.80;;;7.70;47.70;;;;;;5062756;27;46411;-66
2024/01/04 02:29:14;;;;;;;1.20;0.60;;;7.70;47.40;;;;;;5050778;27;46522;-68
2024/01/04 02:31:40;;;;;;;3.40;0.73;;;7.80;47.00;;;;;;5068241;27;46541;-68
2024/01/04 02:34:05;;;;;;;6.47;1.40;;;7.80;46.70;;;;;;5069020;27;46415;-68
2024/01/04 02:36:33;;;;;;;5.03;0.93;;;7.70;46.50;;;;;;5071640;27;46594;-67
2024/01/04 02:38:58;;;;;;;3.90;1.27;;;7.70;46.50;;;;;;5070920;27;46478;-68
2024/01/04 02:41:27;;;;;;;4.13;0.87;;;7.70;46.40;;;;;;5053675;27;47988;-67
2024/01/04 02:43:53;;;;;;;5.97;0.90;;;7.70;46.40;;;;;;5070677;27;46408;-68
2024/01/04 02:46:18;;;;;;;3.93;0.90;;;7.70;46.40;;;;;;5069648;27;46397;-68
2024/01/04 02:48:44;;;;;;;3.37;0.90;;;7.70;46.30;;;;;;5072094;27;46449;-65
2024/01/04 02:51:09;;;;;;;4.60;0.90;;;7.70;46.20;;;;;;5067868;27;46435;-68
2024/01/04 02:53:35;;;;;;;3.33;0.73;;;7.70;46.00;;;;;;5070090;27;46518;-68
2024/01/04 02:56:01;;;;;;;4.20;1.00;;;7.80;45.60;;;;;;5069826;27;46344;-68
2024/01/04 02:58:27;;;;;;;3.17;0.80;;;7.90;45.20;;;;;;5051988;27;46047;-68
2024/01/04 03:00:52;;;;;;;2.53;0.70;;;8.00;44.80;;;;;;5068162;27;46923;-67
2024/01/04 03:03:18;;;;;;;2.50;0.80;;;8.00;44.80;;;;;;5069254;27;46464;-67
2024/01/04 03:05:44;;;;;;;2.73;0.73;;;8.00;44.70;;;;;;5071708;27;46395;-67
2024/01/04 03:08:09;;;;;;;2.07;0.70;;;7.90;44.70;;;;;;5067641;27;46498;-67
2024/01/04 03:10:35;;;;;;;2.53;0.97;;;7.90;44.90;;;;;;5071505;27;46544;-67
2024/01/04 03:13:03;;;;;;;2.60;0.77;;;7.90;45.00;;;;;;5068978;27;46714;-68
2024/01/04 03:15:28;;;;;;;2.20;0.60;;;7.90;44.90;;;;;;5069900;27;46419;-68
2024/01/04 03:17:54;;;;;;;2.00;0.80;;;7.80;44.90;;;;;;5051331;28;46409;-67
2024/01/04 03:20:19;;;;;;;3.43;0.93;;;7.80;45.10;;;;;;5068810;27;48101;-68
2024/01/04 03:22:45;;;;;;;1.50;0.73;;;7.80;45.00;;;;;;5067980;27;46771;-67
2024/01/04 03:25:10;;;;;;;2.60;0.70;;;7.80;45.00;;;;;;5070656;27;45799;-68
2024/01/04 03:27:36;;;;;;;1.30;0.70;;;7.90;45.90;;;;;;5066965;27;46432;-68
2024/01/04 03:30:02;;;;;;;1.33;0.60;;;8.00;44.40;;;;;;5070563;27;46427;-67
2024/01/04 03:32:28;;;;;;;2.60;0.97;;;8.00;43.90;;;;;;5068571;27;46419;-67
2024/01/04 03:34:53;;;;;;;2.33;0.80;;;8.10;43.80;;;;;;5068657;27;46698;-67
2024/01/04 03:37:19;;;;;;;2.30;0.77;;;8.10;43.60;;;;;;5068465;27;46446;-67
2024/01/04 03:39:44;;;;;;;1.30;0.60;;;8.10;43.40;;;;;;5068155;27;47276;-68
2024/01/04 03:42:10;;;;;;;2.00;0.70;;;8.10;43.40;;;;;;5069886;27;46424;-67
2024/01/04 03:44:37;;;;;;;1.87;0.70;;;8.10;43.90;;;;;;5068834;27;46401;-68
2024/01/04 03:47:04;;;;;;;2.23;0.70;;;8.00;43.80;;;;;;5067816;27;46519;-67
2024/01/04 03:49:31;;;;;;;1.40;0.60;;;8.00;43.80;;;;;;5066845;27;48019;-68
2024/01/04 03:51:57;;;;;;;4.43;0.90;;;8.00;43.80;;;;;;5070145;27;46450;-67
2024/01/04 03:54:22;;;;;;;1.60;0.70;;;8.10;43.80;;;;;;5065550;27;46713;-67
2024/01/04 03:56:48;;;;;;;2.30;0.70;;;8.00;44.20;;;;;;5050248;27;45947;-67
2024/01/04 03:59:13;;;;;;;3.80;0.70;;;8.00;44.30;;;;;;5068785;27;46501;-67
2024/01/04 04:01:45;;;;;;;3.43;1.00;;;7.90;44.40;;;;;;5067142;27;46485;-67
2024/01/04 04:04:12;;;;;;;2.77;0.80;;;7.90;44.60;;;;;;5067358;27;45801;-67
2024/01/04 04:06:38;;;;;;;1.83;0.77;;;7.90;44.70;;;;;;5066142;27;46770;-66
2024/01/04 04:09:04;;;;;;;5.30;1.40;;;7.90;44.70;;;;;;5065616;27;46625;-66
2024/01/04 04:11:29;;;;;;;7.20;0.90;;;7.90;44.60;;;;;;5066175;27;46483;-68
2024/01/04 04:13:55;;;;;;;6.73;1.10;;;8.00;44.80;;;;;;5068442;27;45983;-66
2024/01/04 04:16:20;;;;;;;2.53;0.70;;;8.00;44.80;;;;;;5066496;27;46474;-67
2024/01/04 04:18:46;;;;;;;2.37;0.93;;;7.90;45.00;;;;;;5068395;27;46509;-67
2024/01/04 04:21:23;;;;;;;4.53;0.90;;;7.90;44.90;;;;;;5068360;27;46684;-67
2024/01/04 04:23:52;;;;;;;5.67;0.90;;;7.90;44.90;;;;;;5066041;27;46524;-67
2024/01/04 04:26:21;;;;;;;3.00;0.70;;;7.90;45.00;;;;;;5065870;27;47069;-67
2024/01/04 04:28:47;;;;;;;4.83;1.10;;;7.80;45.20;;;;;;5066923;27;46644;-67
2024/01/04 04:31:17;;;;;;;5.73;1.40;;;7.70;45.40;;;;;;5049573;28;46472;-68
2024/01/04 04:33:47;;;;;;;6.73;0.80;;;7.60;45.70;;;;;;5066833;27;46749;-67
2024/01/04 04:36:13;;;;;;;5.00;0.70;;;7.60;46.00;;;;;;5067209;27;46622;-66
2024/01/04 04:38:39;;;;;;;2.50;0.90;;;7.60;46.10;;;;;;5065505;27;46221;-66
2024/01/04 04:41:06;;;;;;;3.03;0.80;;;7.60;46.10;;;;;;5067000;27;46517;-66
2024/01/04 04:43:35;;;;;;;2.93;1.13;;;7.50;46.20;;;;;;5066945;27;46681;-67
2024/01/04 04:46:02;;;;;;;3.67;0.70;;;7.60;46.30;;;;;;5066170;27;45914;-66
2024/01/04 04:48:27;;;;;;;5.63;1.00;;;7.60;46.10;;;;;;5065492;27;46486;-67
2024/01/04 04:50:53;;;;;;;4.00;0.87;;;7.60;46.10;;;;;;5065050;27;47335;-67
2024/01/04 04:53:19;;;;;;;4.73;1.10;;;7.60;46.50;;;;;;5063782;27;46347;-65
2024/01/04 04:55:45;;;;;;;3.03;1.10;;;7.60;46.50;;;;;;5066585;27;46493;-66
2024/01/04 04:58:11;;;;;;;1.67;0.70;;;7.60;46.30;;;;;;5065794;27;47062;-68
2024/01/04 05:00:36;;;;;;;4.83;0.80;;;7.60;46.40;;;;;;5064215;27;45871;-65
2024/01/04 05:03:02;;;;;;;4.53;1.03;;;7.60;46.30;;;;;;5066648;27;46770;-67
2024/01/04 05:05:28;;;;;;;5.30;0.90;;;7.60;46.30;;;;;;5066897;27;46447;-66
2024/01/04 05:07:54;;;;;;;2.20;0.70;;;7.60;46.60;;;;;;5066447;27;46498;-66
2024/01/04 05:10:20;;;;;;;3.00;1.10;;;7.60;46.90;;;;;;5049468;28;46512;-68
2024/01/04 05:12:45;;;;;;;2.33;0.67;;;7.60;48.10;;;;;;5066759;27;46737;-67
2024/01/04 05:15:11;;;;;;;1.80;0.80;;;7.60;46.90;;;;;;5064694;27;46547;-66
2024/01/04 05:17:37;;;;;;;2.30;0.70;;;7.60;46.90;;;;;;5065543;27;46425;-68
2024/01/04 05:20:04;;;;;;;3.00;0.80;;;7.60;47.10;;;;;;5065443;27;46723;-66
2024/01/04 05:22:30;;;;;;;3.20;0.70;;;7.60;47.20;;;;;;5065138;27;46818;-67
2024/01/04 05:24:56;;;;;;;2.90;0.70;;;7.60;47.10;;;;;;5065692;27;46663;-65
2024/01/04 05:27:21;;;;;;;1.73;0.70;;;7.60;47.00;;;;;;5064602;27;47278;-67
2024/01/04 05:29:47;;;;;;;3.53;0.80;;;7.60;47.20;;;;;;5065610;27;46437;-67
2024/01/04 05:32:12;;;;;;;1.63;0.70;;;7.50;47.30;;;;;;5066883;27;46408;-67
2024/01/04 05:34:38;;;;;;;1.40;0.70;;;7.50;47.30;;;;;;5065255;27;46907;-67
2024/01/04 05:37:04;;;;;;;1.47;0.70;;;7.40;47.60;;;;;;5066673;27;46497;-67
2024/01/04 05:39:29;;;;;;;1.93;0.60;;;7.30;47.90;;;;;;5068305;27;46554;-67
2024/01/04 05:41:55;;;;;;;1.23;0.70;;;7.30;47.80;;;;;;5064666;27;46401;-67
2024/01/04 05:44:21;;;;;;;1.83;0.70;;;7.40;47.70;;;;;;5068330;27;46772;-67
2024/01/04 05:46:46;;;;;;;2.03;0.60;;;7.40;47.70;;;;;;5066397;27;46530;-66
2024/01/04 05:49:12;;;;;;;2.80;0.73;;;7.30;47.70;;;;;;5064355;27;46506;-67
2024/01/04 05:51:37;;;;;;;1.60;0.63;;;7.30;47.90;;;;;;5068386;27;46179;-67
2024/01/04 05:54:03;;;;;;;1.10;0.50;;;7.10;48.00;;;;;;5067908;27;46504;-67
2024/01/04 05:56:29;;;;;;;3.13;0.70;;;7.00;48.30;;;;;;5065510;27;46455;-67
2024/01/04 05:58:55;;;;;;;2.63;1.13;;;7.00;48.50;;;;;;5064316;27;46759;-67
2024/01/04 06:01:21;;;;;;;3.30;0.90;;;6.90;48.80;;;;;;5066778;27;46599;-67
2024/01/04 06:03:46;;;;;;;5.10;0.70;;;6.80;49.20;;;;;;5066463;27;46483;-67
2024/01/04 06:06:14;;;;;;;1.83;0.97;;;6.90;49.50;;;;;;5070719;27;47333;-67
2024/01/04 06:08:40;;;;;;;5.93;0.83;;;6.80;49.80;;;;;;5068540;27;46536;-67
2024/01/04 06:11:06;;;;;;;1.60;0.73;;;6.70;49.80;;;;;;5069756;27;46492;-66
2024/01/04 06:13:32;;;;;;;4.07;0.97;;;6.70;49.80;;;;;;5068005;27;46001;-67
2024/01/04 06:15:57;;;;;;;2.60;0.80;;;6.70;49.80;;;;;;5069350;27;46474;-67
2024/01/04 06:18:23;;;;;;;1.60;0.73;;;6.70;49.80;;;;;;5067240;27;46401;-67
2024/01/04 06:20:48;;;;;;;1.67;0.70;;;6.70;49.80;;;;;;5069840;27;46635;-67
2024/01/04 06:23:15;;;;;;;2.67;0.70;;;6.60;49.80;;;;;;5070435;27;46394;-67
2024/01/04 06:25:41;;;;;;;2.93;0.93;;;6.60;49.70;;;;;;5069884;27;46653;-67
2024/01/04 06:28:06;;;;;;;3.67;0.80;;;6.70;49.80;;;;;;5068661;27;46392;-67
2024/01/04 06:30:34;;;;;;;5.33;0.80;;;6.70;49.70;;;;;;5065688;27;46545;-67
2024/01/04 06:32:59;;;;;;;6.40;1.20;;;6.70;49.40;;;;;;5071501;27;46654;-67
2024/01/04 06:35:25;;;;;;;3.40;0.90;;;6.80;49.40;;;;;;5069533;27;46466;-67
2024/01/04 06:37:51;;;;;;;4.03;0.93;;;6.80;49.30;;;;;;5068440;27;46916;-67
2024/01/04 06:40:16;;;;;;;3.10;1.10;;;6.90;49.00;;;;;;5072329;27;46641;-68
2024/01/04 06:42:42;;;;;;;2.90;0.70;;;6.90;48.80;;;;;;5069707;27;46472;-68
2024/01/04 06:45:08;;;;;;;2.33;0.80;;;7.10;48.30;;;;;;5070338;27;47347;-67
2024/01/04 06:47:34;;;;;;;3.10;1.20;;;7.20;48.10;;;;;;5065430;27;46387;-67
2024/01/04 06:50:00;;;;;;;2.63;0.90;;;7.30;48.00;;;;;;5070630;27;46666;-67
2024/01/04 06:52:25;;;;;;;2.27;0.90;;;7.40;47.70;;;;;;5070683;27;46439;-67
2024/01/04 06:54:51;;;;;;;4.47;0.90;;;7.50;47.30;;;;;;5071889;27;46453;-67
2024/01/04 06:57:17;;;;;;;3.00;0.90;;;7.50;47.10;;;;;;5071763;27;46692;-67
2024/01/04 06:59:42;;;;;;;1.47;0.80;;;7.50;47.10;;;;;;5069300;27;46377;-66
2024/01/04 07:02:08;;;;;;;1.87;0.60;;;7.40;47.30;;;;;;5065275;27;46371;-67
2024/01/04 07:04:33;;;;;;;2.20;0.80;;;7.50;47.30;;;;;;5051098;28;49302;-67
2024/01/04 07:06:59;;;;;;;8.90;1.50;;;7.50;47.30;;;;;;5067909;27;45910;-67
2024/01/04 07:09:24;;;;;;;2.57;0.70;;;7.60;47.10;;;;;;5053198;28;46891;-66
2024/01/04 07:11:51;;;;;;;2.63;0.70;;;7.60;46.90;;;;;;5069276;27;46705;-67
2024/01/04 07:14:17;;;;;;;2.70;0.87;;;7.60;46.80;;;;;;5062242;27;47080;-70
2024/01/04 07:16:46;;;;;;;5.50;0.93;;;7.60;47.00;;;;;;5068752;27;46455;-69
2024/01/04 07:19:12;;;;;;;2.13;1.03;;;7.60;47.10;;;;;;5067221;27;46384;-67
2024/01/04 07:21:39;;;;;;;3.27;1.23;;;7.60;47.10;;;;;;5065610;27;46633;-66
2024/01/04 07:24:05;;;;;;;3.23;0.80;;;7.60;47.00;;;;;;5069653;27;46030;-66
2024/01/04 07:26:30;;;;;;;3.73;1.00;;;7.60;47.10;;;;;;5067816;27;46766;-67
2024/01/04 07:28:56;;;;;;;5.37;1.00;;;7.50;47.20;;;;;;5070390;27;46627;-67
2024/01/04 07:31:21;;;;;;;3.23;0.93;;;7.50;47.50;;;;;;5069774;27;46485;-67
2024/01/04 07:33:47;;;;;;;7.43;1.30;;;7.40;47.60;;;;;;5069459;27;46517;-67
2024/01/04 07:36:14;;;;;;;2.97;0.93;;;7.40;47.70;;;;;;5072501;27;46445;-67
2024/01/04 07:38:40;;;;;;;1.30;0.60;;;7.40;47.60;;;;;;5069993;27;46696;-68
2024/01/04 07:41:05;;;;;;;2.53;0.83;;;7.50;47.50;;;;;;5069069;27;45951;-67
2024/01/04 07:43:31;;;;;;;5.80;0.90;;;7.60;47.10;;;;;;5069287;27;47275;-67
2024/01/04 07:45:56;;;;;;;3.43;1.17;;;7.70;46.80;;;;;;5064017;27;46554;-66
2024/01/04 07:48:22;;;;;;;3.73;0.77;;;7.70;46.60;;;;;;5065807;27;45892;-67
2024/01/04 07:50:48;;;;;;;2.00;0.80;;;7.70;46.70;;;;;;5068728;27;46771;-67
2024/01/04 07:53:14;;;;;;;2.80;1.03;;;7.60;46.90;;;;;;5069333;27;46614;-66
2024/01/04 07:55:39;;;;;;;2.07;0.83;;;7.60;47.00;;;;;;5068934;27;46515;-67
2024/01/04 07:58:05;;;;;;;3.40;1.00;;;7.60;47.00;;;;;;5051671;27;46397;-68
2024/01/04 08:00:31;;;;;;;4.07;1.07;;;7.50;47.20;;;;;;5070091;27;46430;-69
2024/01/04 08:02:56;;;;;;;3.33;0.90;;;7.60;47.20;;;;;;5064848;27;46017;-67
2024/01/04 08:05:22;;;;;;;3.50;0.70;;;7.60;47.00;;;;;;5069487;27;46547;-68
2024/01/04 08:07:47;;;;;;;2.33;0.83;;;7.60;47.10;;;;;;5066245;27;45852;-67
2024/01/04 08:10:13;;;;;;;3.23;1.03;;;7.60;47.20;;;;;;5066861;27;46489;-64
2024/01/04 08:12:40;;;;;;;2.53;1.17;;;7.60;47.20;;;;;;5049085;28;48240;-68
2024/01/04 08:15:08;;;;;;;9.00;1.90;;;7.70;46.90;;;;;;5067949;27;46529;-68
2024/01/04 08:17:33;;;;;;;2.87;1.10;;;7.90;47.70;;;;;;5066948;27;46704;-68
2024/01/04 08:19:59;;;;;;;2.97;0.90;;;8.00;46.20;;;;;;5067747;27;46490;-69
2024/01/04 08:22:25;;;;;;;4.17;0.93;;;8.00;45.90;;;;;;5067508;27;47149;-67
2024/01/04 08:24:51;;;;;;;3.43;0.90;;;8.00;45.80;;;;;;5066217;27;46471;-68
2024/01/04 08:27:20;;;;;;;2.17;0.80;;;8.10;45.90;;;;;;5070677;27;46443;-68
2024/01/04 08:29:48;;;;;;;2.63;0.90;;;8.00;45.90;;;;;;5068255;27;46545;-68
2024/01/04 08:32:15;;;;;;;6.57;1.53;;;8.20;45.80;;;;;;5068409;27;46561;-70
2024/01/04 08:34:40;;;;;;;2.13;0.93;;;8.30;45.30;;;;;;5068400;27;46478;-69
2024/01/04 08:37:06;;;;;;;3.83;0.90;;;8.40;45.00;;;;;;5064611;27;46521;-67
2024/01/04 08:39:32;;;;;;;3.33;1.10;;;8.50;44.50;;;;;;5064804;27;46466;-68
2024/01/04 08:41:58;;;;;;;5.90;1.33;;;8.50;44.40;;;;;;5064599;27;46547;-66
2024/01/04 08:44:23;;;;;;;5.93;1.60;;;8.60;44.30;;;;;;5068237;27;46530;-67
2024/01/04 08:46:50;;;;;;;3.00;0.93;;;8.70;43.60;;;;;;5068426;27;45931;-64
2024/01/04 08:49:17;;;;;;;2.50;0.93;;;8.80;43.60;;;;;;5055469;28;46352;-67
2024/01/04 08:51:42;;;;;;;3.80;1.10;;;8.90;43.10;;;;;;5065176;27;47295;-67
2024/01/04 08:54:08;;;;;;;3.47;1.13;;;8.90;42.80;;;;;;5067505;27;46474;-67
2024/01/04 08:56:33;;;;;;;2.10;0.87;;;9.00;42.60;;;;;;5068597;27;46426;-66
2024/01/04 08:59:00;;;;;;;7.73;1.57;;;9.00;42.50;;;;;;5062615;27;46709;-66
2024/01/04 09:01:25;;;;;;;8.27;1.30;;;9.00;42.30;;;;;;5055632;27;48274;-66
2024/01/04 09:03:52;;;;;;;7.30;2.10;;;9.00;42.10;;;;;;5065301;27;46456;-67
2024/01/04 09:06:18;;;;;;;5.67;1.03;;;9.00;41.90;;;;;;5067772;27;46744;-66
2024/01/04 09:08:43;;;;;;;2.77;1.00;;;9.00;42.00;;;;;;5067893;27;46727;-65
2024/01/04 09:11:09;;;;;;;6.50;1.10;;;8.90;41.80;;;;;;5066693;27;46626;-65
2024/01/04 09:13:35;;;;;;;3.40;1.40;;;8.90;41.90;;;;;;5068669;27;46619;-67
2024/01/04 09:16:01;;;;;;;8.50;1.23;;;8.90;41.30;;;;;;5066501;27;46608;-67
2024/01/04 09:18:27;;;;;;;4.20;0.90;;;8.90;41.00;;;;;;5066740;27;46502;-67
2024/01/04 09:20:52;;;;;;;2.23;0.80;;;9.00;40.70;;;;;;5046304;27;46095;-66
2024/01/04 09:23:18;;;;;;;2.53;0.87;;;9.00;40.90;;;;;;5066066;27;46415;-67
2024/01/04 09:25:45;;;;;;;4.00;1.00;;;9.00;40.60;;;;;;5067408;27;46310;-64
2024/01/04 09:28:10;;;;;;;6.00;1.40;;;9.00;40.50;;;;;;5063607;27;46412;-67
2024/01/04 09:30:36;;;;;;;2.50;1.07;;;8.90;40.50;;;;;;5067851;27;47247;-67
2024/01/04 09:33:02;;;;;;;4.50;1.30;;;8.90;40.30;;;;;;5063068;27;46737;-66
2024/01/04 09:35:27;;;;;;;6.30;1.03;;;8.90;40.70;;;;;;5070631;22;46475;-73
2024/01/04 09:37:53;;;;;;;4.53;1.10;;;8.90;40.10;;;;;;5050138;28;46686;-73
2024/01/04 09:40:20;;;;;;;6.17;1.57;;;9.00;40.00;;;;;;5047793;28;46411;-73
2024/01/04 09:42:48;;;;;;;6.20;1.17;;;9.10;39.40;;;;;;5047428;28;46384;-71
2024/01/04 09:45:16;;;;;;;4.10;0.90;;;9.20;38.90;;;;;;5046095;28;46499;-70
2024/01/04 09:47:43;;;;;;;5.83;1.13;;;9.30;38.80;;;;;;5046688;28;45997;-72
2024/01/04 09:50:11;;;;;;;5.60;1.50;;;9.30;38.80;;;;;;5045551;28;46498;-72
2024/01/04 09:52:41;;;;;;;3.20;1.00;;;9.40;38.80;;;;;;5046665;28;46500;-71
2024/01/04 09:55:09;;;;;;;5.30;1.10;;;9.30;38.50;;;;;;5047357;28;46814;-71
2024/01/04 09:57:35;;;;;;;6.10;1.27;;;9.40;39.40;;;;;;5046066;28;46517;-73
2024/01/04 10:00:02;;;;;;;4.83;1.00;;;9.40;38.10;;;;;;5027604;28;47336;-71
2024/01/04 10:02:29;;;;;;;7.33;1.20;;;9.40;38.00;;;;;;5046778;28;46420;-72
2024/01/04 10:04:58;;;;;;;4.27;1.10;;;9.50;37.70;;;;;;5048012;28;46440;-70
2024/01/04 10:07:25;;;;;;;3.97;1.30;;;9.50;37.40;;;;;;5045407;28;46360;-72
2024/01/04 10:10:00;;;;;;;6.87;1.20;;;9.60;37.10;;;;;;5028634;28;47065;-72
2024/01/04 10:12:32;;;;;;;4.30;1.10;;;9.60;36.60;;;;;;5047732;28;46428;-72
2024/01/04 10:14:59;;;;;;;3.10;1.13;;;9.80;36.60;;;;;;5047019;28;45908;-72
2024/01/04 10:17:24;;;;;;;5.73;1.13;;;10.00;35.10;;;;;;5045767;28;46006;-72
2024/01/04 10:19:50;;;;;;;3.30;1.20;;;10.10;33.70;;;;;;5045042;28;47281;-72
2024/01/04 10:22:23;;;;;;;5.07;1.50;;;10.10;33.50;;;;;;5048329;28;46499;-71
2024/01/04 10:24:51;;;;;;;3.43;0.90;;;10.00;33.60;;;;;;5045819;28;46659;-71
2024/01/04 10:27:16;;;;;;;6.40;1.17;;;9.80;34.60;;;;;;5046892;28;46518;-73
2024/01/04 10:29:45;;;;;;;6.83;1.30;;;9.60;36.30;;;;;;5046485;28;46463;-73
2024/01/04 10:32:12;;;;;;;3.73;1.47;;;9.60;35.10;;;;;;5046635;28;46698;-73
2024/01/04 10:34:39;;;;;;;3.17;0.90;;;9.50;35.10;;;;;;5045211;28;46547;-72
2024/01/04 10:37:12;;;;;;;5.23;1.17;;;9.50;34.80;;;;;;5044761;28;46568;-71
2024/01/04 10:39:39;;;;;;;4.10;1.10;;;9.40;34.80;;;;;;5044551;28;46881;-73
2024/01/04 10:42:07;;;;;;;7.23;1.40;;;9.30;35.10;;;;;;5046954;28;46404;-69
2024/01/04 10:44:33;;;;;;;2.90;1.13;;;9.50;34.70;;;;;;5048362;28;46487;-69
2024/01/04 10:47:02;;;;;;;2.93;1.10;;;9.60;33.90;;;;;;5045952;28;46587;-68
2024/01/04 10:49:28;;;;;;;11.70;1.50;;;9.80;33.60;;;;;;5043237;28;46755;-69
2024/01/04 10:51:58;;;;;;;4.63;1.20;;;9.90;33.20;;;;;;5046679;28;46405;-69
2024/01/04 10:54:37;;;;;;;4.80;1.30;;;10.00;31.80;;;;;;5047484;28;46357;-69
2024/01/04 10:57:03;;;;;;;4.00;1.10;;;10.00;31.50;;;;;;5051876;28;46752;-68
2024/01/04 10:59:29;;;;;;;4.57;1.30;;;10.00;31.50;;;;;;5035342;28;48222;-69
2024/01/04 11:01:57;;;;;;;2.70;1.10;;;10.00;30.60;;;;;;5049339;28;46423;-67
2024/01/04 11:04:24;;;;;;;5.33;1.93;;;10.10;30.60;;;;;;5049386;28;46349;-67
2024/01/04 11:06:52;;;;;;;5.37;1.53;;;10.30;30.20;;;;;;5051671;28;46420;-69
2024/01/04 11:09:22;;;;;;;5.50;1.23;;;10.30;30.00;;;;;;5052030;28;47040;-68
2024/01/04 11:11:51;;;;;;;3.40;0.90;;;10.20;29.70;;;;;;5047552;28;46388;-68
2024/01/04 11:14:20;;;;;;;6.50;1.33;;;10.20;29.60;;;;;;5048444;28;46492;-68
2024/01/04 11:17:26;;;;;;;4.10;1.30;;;10.10;29.80;;;;;;5048782;28;46776;-68
2024/01/04 11:20:23;;;;;;;8.53;1.10;;;10.10;30.00;;;;;;5049288;28;47186;-68
2024/01/04 11:23:16;;;;;;;3.37;1.20;;;10.00;29.90;;;;;;5046702;28;47028;-68
2024/01/04 11:25:49;;;;;;;4.47;1.10;;;10.20;29.90;;;;;;5040262;28;46479;-67
2024/01/04 11:28:15;;;;;;;4.70;1.10;;;10.40;29.50;;;;;;5050490;28;46430;-66
2024/01/04 11:30:41;;;;;;;4.63;1.40;;;10.50;29.30;;;;;;5048083;28;47080;-68
2024/01/04 11:33:06;;;;;;;3.30;0.97;;;10.60;29.00;;;;;;5046778;28;46039;-67
2024/01/04 11:35:36;;;;;;;4.40;1.13;;;10.70;28.90;;;;;;5046250;28;46892;-67
2024/01/04 11:38:07;;;;;;;4.60;1.30;;;10.80;28.90;;;;;;5044074;28;46490;-66
2024/01/04 11:40:35;;;;;;;3.00;0.87;;;10.90;28.60;;;;;;5047433;28;46623;-67
2024/01/04 11:43:12;;;;;;;2.77;0.90;;;10.80;28.50;;;;;;5047160;28;46459;-69
2024/01/04 11:45:42;;;;;;;5.13;1.20;;;10.70;28.60;;;;;;5050885;28;46473;-67
2024/01/04 11:48:10;;;;;;;6.20;1.40;;;10.90;28.60;;;;;;5048291;28;46373;-68
2024/01/04 11:50:36;;;;;;;4.03;1.20;;;10.90;28.30;;;;;;5048916;28;46451;-68
2024/01/04 11:53:06;;;;;;;2.13;0.70;;;10.90;28.20;;;;;;5045299;28;46445;-68
2024/01/04 11:55:33;;;;;;;4.93;1.07;;;10.80;27.70;;;;;;5047268;28;46397;-67
2024/01/04 11:58:11;;;;;;;4.80;1.30;;;10.40;28.10;;;;;;5049715;28;46428;-67
2024/01/04 12:00:38;;;;;;;4.30;1.00;;;10.30;27.90;;;;;;5047416;28;46727;-68
2024/01/04 12:03:14;;;;;;;5.13;1.10;;;10.10;28.20;;;;;;5047756;28;46312;-68
2024/01/04 12:05:45;;;;;;;4.50;1.03;;;10.20;28.20;;;;;;5032398;28;46597;-67
2024/01/04 12:08:25;;;;;;;3.03;1.00;;;10.10;28.30;;;;;;5047505;28;46803;-68
2024/01/04 12:11:00;;;;;;;2.70;0.97;;;9.80;29.60;;;;;;5048343;28;46758;-67
2024/01/04 12:13:26;;;;;;;4.93;1.17;;;9.70;30.00;;;;;;5048295;28;46434;-68
2024/01/04 12:15:52;;;;;;;6.73;1.20;;;9.80;30.00;;;;;;5048169;28;46420;-68
2024/01/04 12:18:18;;;;;;;4.50;1.30;;;9.70;30.00;;;;;;5047172;28;46671;-68
2024/01/04 12:20:44;;;;;;;5.70;1.30;;;9.70;30.10;;;;;;5047994;28;46770;-67
2024/01/04 12:23:11;;;;;;;5.23;1.27;;;9.60;30.20;;;;;;5047615;28;46399;-68
2024/01/04 12:25:38;;;;;;;2.90;0.90;;;9.60;30.10;;;;;;5037362;28;46419;-67
2024/01/04 12:28:05;;;;;;;3.70;0.93;;;9.70;30.10;;;;;;5046991;28;46368;-68
2024/01/04 12:30:31;;;;;;;2.27;1.13;;;9.70;30.00;;;;;;5046637;28;46413;-67
2024/01/04 12:32:58;;;;;;;5.33;1.10;;;9.70;30.40;;;;;;5048710;28;46352;-67
2024/01/04 12:35:23;;;;;;;4.67;1.17;;;9.90;30.00;;;;;;5044488;28;46500;-67
2024/01/04 12:38:24;;;;;;;4.40;1.10;;;10.00;29.00;;;;;;5045096;28;46503;-67
2024/01/04 12:40:50;;;;;;;5.43;1.20;;;10.10;28.90;;;;;;5006407;28;48037;-67
2024/01/04 12:43:20;;;;;;;3.70;1.00;;;10.30;28.60;;;;;;5047347;28;46448;-68
2024/01/04 12:45:46;;;;;;;7.10;1.40;;;10.40;28.30;;;;;;5046804;28;46419;-68
2024/01/04 12:48:12;;;;;;;6.50;1.10;;;10.30;28.10;;;;;;5046740;28;46451;-66
2024/01/04 12:50:38;;;;;;;5.80;1.17;;;10.40;28.30;;;;;;5047979;28;46648;-67
2024/01/04 12:53:05;;;;;;;4.27;1.13;;;10.40;28.30;;;;;;5046586;28;46380;-67